createdAt,value
2023-05-21T00:04:20.131Z,17.70
2023-05-21T00:09:21.934Z,18.00
2023-05-21T00:14:23.727Z,19.90
2023-05-21T00:19:27.251Z,17.00
2023-05-21T00:24:29.439Z,18.70
2023-05-21T00:29:31.169Z,21.70
2023-05-21T00:34:32.899Z,18.70
2023-05-21T00:39:34.600Z,17.20
2023-05-21T00:44:36.392Z,21.40
2023-05-21T00:49:38.383Z,21.10
2023-05-21T00:54:40.060Z,17.40
2023-05-21T00:59:41.904Z,21.50
2023-05-21T01:04:45.434Z,18.50
2023-05-21T01:09:47.446Z,23.90
2023-05-21T01:14:49.917Z,23.80
2023-05-21T01:19:52.726Z,18.50
2023-05-21T01:24:55.585Z,20.80
2023-05-21T01:29:57.870Z,18.50
2023-05-21T01:35:29.605Z,19.20
2023-05-21T01:40:54.306Z,17.10
2023-05-21T01:45:57.385Z,18.20
2023-05-21T01:51:05.935Z,22.80
2023-05-21T01:56:08.218Z,20.80
2023-05-21T02:01:10.130Z,20.20
2023-05-21T02:11:14.200Z,19.30
2023-05-21T02:16:16.225Z,24.70
2023-05-21T02:26:19.800Z,19.90
2023-05-21T02:31:21.545Z,18.50
2023-05-21T02:36:25.242Z,18.90
2023-05-21T02:41:27.203Z,22.00
2023-05-21T02:46:29.009Z,20.80
2023-05-21T02:56:33.551Z,19.20
2023-05-21T03:01:35.423Z,17.20
2023-05-21T03:11:38.999Z,19.60
2023-05-21T03:16:41.898Z,17.40
2023-05-21T03:21:44.708Z,18.90
2023-05-21T03:26:48.231Z,18.50
2023-05-21T03:31:52.907Z,18.20
2023-05-21T03:36:54.815Z,15.40
2023-05-21T03:41:57.294Z,15.30
2023-05-21T03:47:19.086Z,14.90
2023-05-21T03:57:23.252Z,20.40
2023-05-21T04:07:30.202Z,15.40
2023-05-21T04:17:34.580Z,15.30
2023-05-21T04:22:37.294Z,13.80
2023-05-21T04:27:39.392Z,14.10
2023-05-21T04:32:45.889Z,15.20
2023-05-21T04:37:47.744Z,11.90
2023-05-21T04:42:50.983Z,11.70
2023-05-21T04:47:53.771Z,12.10
2023-05-21T04:52:55.902Z,12.60
2023-05-21T04:57:57.840Z,10.10
2023-05-21T05:02:59.979Z,10.50
2023-05-21T05:08:02.588Z,16.30
2023-05-21T05:13:04.414Z,10.30
2023-05-21T05:18:08.754Z,10.20
2023-05-21T05:23:10.857Z,10.50
2023-05-21T05:28:13.269Z,7.80
2023-05-21T05:33:15.066Z,9.80
2023-05-21T05:38:17.456Z,8.00
2023-05-21T05:43:19.403Z,9.80
2023-05-21T05:48:21.549Z,7.30
2023-05-21T05:53:23.338Z,7.00
2023-05-21T05:58:26.012Z,8.60
2023-05-21T06:03:46.086Z,13.70
2023-05-21T06:08:50.264Z,7.40
2023-05-21T06:13:53.942Z,10.20
2023-05-21T06:18:57.423Z,8.90
2023-05-21T06:23:59.772Z,7.80
2023-05-21T06:29:03.911Z,7.90
2023-05-21T06:34:06.117Z,7.10
2023-05-21T06:39:08.083Z,9.00
2023-05-21T06:44:11.125Z,6.20
2023-05-21T06:49:36.851Z,7.10
2023-05-21T06:54:38.817Z,6.40
2023-05-21T06:59:41.533Z,8.60
2023-05-21T07:04:43.885Z,8.90
2023-05-21T07:09:45.790Z,7.00
2023-05-21T07:14:47.512Z,7.20
2023-05-21T07:19:49.479Z,6.80
2023-05-21T07:24:51.382Z,8.40
2023-05-21T07:29:53.406Z,5.50
2023-05-21T07:34:56.612Z,6.70
2023-05-21T07:39:59.448Z,8.30
2023-05-21T07:45:02.262Z,5.20
2023-05-21T07:50:06.352Z,5.40
2023-05-21T07:55:10.403Z,6.10
2023-05-21T08:00:16.374Z,6.50
2023-05-21T08:05:23.610Z,7.10
2023-05-21T08:10:25.892Z,5.30
2023-05-21T08:15:27.929Z,4.20
2023-05-21T08:20:31.180Z,6.50
2023-05-21T08:25:33.238Z,7.20
2023-05-21T08:30:36.166Z,4.80
2023-05-21T08:35:38.126Z,5.40
2023-05-21T08:40:52.296Z,8.60
2023-05-21T08:45:55.573Z,5.10
2023-05-21T08:51:01.171Z,5.60
2023-05-21T08:56:07.485Z,4.00
2023-05-21T09:01:25.589Z,4.60
2023-05-21T09:06:47.054Z,4.50
2023-05-21T09:11:49.637Z,4.50
2023-05-21T09:16:51.710Z,5.30
2023-05-21T09:21:53.987Z,4.60
2023-05-21T09:26:59.108Z,5.20
2023-05-21T09:32:07.907Z,4.70
2023-05-21T09:37:23.704Z,6.40
2023-05-21T09:42:30.150Z,5.70
2023-05-21T09:47:32.565Z,5.10
2023-05-21T09:52:36.760Z,4.50
2023-05-21T09:57:42.706Z,3.80
2023-05-21T10:02:47.095Z,4.60
2023-05-21T10:07:53.701Z,4.70
2023-05-21T10:13:00.589Z,4.40
2023-05-21T10:18:03.580Z,5.00
2023-05-21T10:23:06.237Z,3.90
2023-05-21T10:28:08.076Z,4.80
2023-05-21T10:33:23.645Z,6.00
2023-05-21T10:38:27.602Z,3.70
2023-05-21T10:43:49.309Z,4.00
2023-05-21T10:49:17.808Z,3.80
2023-05-21T10:54:42.173Z,4.70
2023-05-21T10:59:47.036Z,5.80
2023-05-21T11:04:58.774Z,3.80
2023-05-21T11:10:29.971Z,5.80
2023-05-21T11:15:57.681Z,4.00
2023-05-21T11:21:16.186Z,4.20
2023-05-21T11:26:28.960Z,5.90
2023-05-21T11:31:38.798Z,3.20
2023-05-21T11:36:43.768Z,3.40
2023-05-21T11:41:52.614Z,6.20
2023-05-21T11:46:54.930Z,3.60
2023-05-21T11:51:57.478Z,3.90
2023-05-21T11:56:59.987Z,5.50
2023-05-21T12:02:05.292Z,4.20
2023-05-21T12:07:07.827Z,3.60
2023-05-21T12:12:11.407Z,4.20
2023-05-21T12:17:16.645Z,5.00
2023-05-21T12:22:18.837Z,4.10
2023-05-21T12:27:22.134Z,3.80
2023-05-21T12:32:28.398Z,3.60
2023-05-21T12:37:32.487Z,4.20
2023-05-21T12:42:36.853Z,5.40
2023-05-21T12:47:39.078Z,4.30
2023-05-21T12:52:43.184Z,3.20
2023-05-21T12:57:45.679Z,5.00
2023-05-21T13:02:47.857Z,4.10
2023-05-21T13:07:51.584Z,6.70
2023-05-21T13:12:53.517Z,5.40
2023-05-21T13:17:56.914Z,4.30
2023-05-21T13:22:59.095Z,5.30
2023-05-21T13:28:05.225Z,5.00
2023-05-21T13:33:07.324Z,4.00
2023-05-21T13:38:09.326Z,3.50
2023-05-21T13:43:11.143Z,3.60
2023-05-21T13:48:12.947Z,4.50
2023-05-21T13:53:14.777Z,5.50
2023-05-21T13:58:16.599Z,4.70
2023-05-21T14:03:18.528Z,4.60
2023-05-21T14:08:21.362Z,3.80
2023-05-21T14:13:23.077Z,3.50
2023-05-21T14:18:24.990Z,4.20
2023-05-21T14:23:26.770Z,3.70
2023-05-21T14:28:28.478Z,4.10
2023-05-21T14:33:34.428Z,4.10
2023-05-21T14:38:36.169Z,4.80
2023-05-21T14:43:37.924Z,4.70
2023-05-21T14:48:39.974Z,3.40
2023-05-21T14:53:42.081Z,3.60
2023-05-21T14:58:43.785Z,3.90
2023-05-21T15:03:45.654Z,3.80
2023-05-21T15:08:47.534Z,3.70
2023-05-21T15:13:49.387Z,4.50
2023-05-21T15:18:51.443Z,3.80
2023-05-21T15:23:53.321Z,3.70
2023-05-21T15:28:55.275Z,3.90
2023-05-21T15:33:58.455Z,3.90
2023-05-21T15:39:03.558Z,3.50
2023-05-21T15:44:05.450Z,4.90
2023-05-21T15:49:07.594Z,5.30
2023-05-21T15:54:09.263Z,3.50
2023-05-21T15:59:11.961Z,5.30
2023-05-21T16:04:15.722Z,3.30
2023-05-21T16:09:17.548Z,4.60
2023-05-21T16:14:20.603Z,4.30
2023-05-21T16:19:22.810Z,4.50
2023-05-21T16:24:24.578Z,3.80
2023-05-21T16:29:27.638Z,4.60
2023-05-21T16:34:29.636Z,5.00
2023-05-21T16:39:31.367Z,4.40
2023-05-21T16:44:33.144Z,6.30
2023-05-21T16:49:34.869Z,4.60
2023-05-21T16:54:36.563Z,4.70
2023-05-21T16:59:38.225Z,5.10
2023-05-21T17:04:40.050Z,4.00
2023-05-21T17:09:41.882Z,4.40
2023-05-21T17:14:43.663Z,3.90
2023-05-21T17:19:45.518Z,4.20
2023-05-21T17:24:47.471Z,3.40
2023-05-21T17:29:49.266Z,4.00
2023-05-21T17:34:53.064Z,4.10
2023-05-21T17:39:55.121Z,4.50
2023-05-21T17:44:56.864Z,4.20
2023-05-21T17:49:58.735Z,4.80
2023-05-21T17:55:01.271Z,4.30
2023-05-21T18:00:05.120Z,3.80
2023-05-21T18:05:13.812Z,5.00
2023-05-21T18:10:15.706Z,4.10
2023-05-21T18:15:17.558Z,5.50
2023-05-21T18:20:19.351Z,4.30
2023-05-21T18:25:21.423Z,4.50
2023-05-21T18:30:23.146Z,3.90
2023-05-21T18:40:30.404Z,6.00
2023-05-21T18:45:33.373Z,3.90
2023-05-21T18:50:37.052Z,3.70
2023-05-21T18:55:39.118Z,4.90
2023-05-21T19:00:42.560Z,4.60
2023-05-21T19:05:44.483Z,6.40
2023-05-21T19:10:46.439Z,4.40
2023-05-21T19:15:48.959Z,4.60
2023-05-21T19:20:50.928Z,4.20
2023-05-21T19:25:52.724Z,7.40
2023-05-21T19:35:56.836Z,3.90
2023-05-21T19:40:58.556Z,5.70
2023-05-21T19:46:00.554Z,4.20
2023-05-21T19:51:02.896Z,4.60
2023-05-21T19:56:04.683Z,7.70
2023-05-21T20:01:06.551Z,4.10
2023-05-21T20:06:08.933Z,6.20
2023-05-21T20:11:10.956Z,3.90
2023-05-21T20:16:12.862Z,6.60
2023-05-21T20:21:18.107Z,5.30
2023-05-21T20:26:20.081Z,4.90
2023-05-21T20:31:22.478Z,6.70
2023-05-21T20:36:25.863Z,3.70
2023-05-21T20:41:35.784Z,4.80
2023-05-21T20:46:38.475Z,3.70
2023-05-21T20:51:41.529Z,5.30
2023-05-21T20:56:45.065Z,5.60
2023-05-21T21:01:47.098Z,7.20
2023-05-21T21:06:50.376Z,4.50
2023-05-21T21:11:52.735Z,5.20
2023-05-21T21:16:54.475Z,5.00
2023-05-21T21:26:58.227Z,3.80
2023-05-21T21:32:00.292Z,4.60
2023-05-21T21:37:02.125Z,4.40
2023-05-21T21:42:04.906Z,4.70
2023-05-21T21:47:10.924Z,4.20
2023-05-21T21:52:15.731Z,4.70
2023-05-21T21:57:17.445Z,6.40
2023-05-21T22:02:19.221Z,5.10
2023-05-21T22:12:22.978Z,5.60
2023-05-21T22:17:24.842Z,5.30
2023-05-21T22:22:26.872Z,5.20
2023-05-21T22:32:30.257Z,5.00
2023-05-21T22:37:32.248Z,4.60
2023-05-21T22:42:35.526Z,4.80
2023-05-21T22:47:39.723Z,3.70
2023-05-21T22:52:41.981Z,3.10
2023-05-21T22:57:44.295Z,5.10
2023-05-21T23:02:47.103Z,3.70
2023-05-21T23:07:49.747Z,3.50
2023-05-21T23:12:54.084Z,4.30
2023-05-21T23:17:57.004Z,3.60
2023-05-21T23:22:59.210Z,4.20
2023-05-21T23:28:01.004Z,4.20
2023-05-21T23:33:03.044Z,3.60
2023-05-21T23:38:05.997Z,5.00
2023-05-21T23:43:13.937Z,3.50
2023-05-21T23:48:17.616Z,3.50
2023-05-21T23:53:20.011Z,3.90
2023-05-21T23:58:21.716Z,4.10
